Terminal Aerodrome Forecast
Issued by NWS

Home | Current Version | Previous Version | Graphics & Text | Print | Product List | Glossary On
Versions: 1 2 3 4 5 6 7 8 9 10 11 12 13 14 15 16
410
FTUS43 KUNR 072331
TAFGCC
TAF
KGCC 072331Z 0800/0824 31010KT P6SM SCT025
      TEMPO 0800/0802 BKN025
     FM080400 29006KT P6SM SCT250
     FM080900 VRB03KT P6SM SKC
     FM081700 17006KT P6SM SKC=

USA.gov is the U.S. government's official web portal to all federal, state and local government web resources and services.